Map

Track Data

SID SEASON NUMBER BASIN SUBBASIN NAME ISO_TIME NATURE LAT LON WMO_WIND WMO_PRES WMO_AGENCY TRACK_TYPE DIST2LAND LANDFALL IFLAG USA_AGENCY USA_ATCF_ID USA_LAT USA_LON USA_RECORD USA_STATUS USA_WIND USA_PRES USA_SSHS USA_R34_NE USA_R34_SE USA_R34_SW USA_R34_NW USA_R50_NE USA_R50_SE USA_R50_SW USA_R50_NW USA_R64_NE USA_R64_SE USA_R64_SW USA_R64_NW USA_POCI USA_ROCI USA_RMW USA_EYE TOKYO_LAT TOKYO_LON TOKYO_GRADE TOKYO_WIND TOKYO_PRES TOKYO_R50_DIR TOKYO_R50_LONG TOKYO_R50_SHORT TOKYO_R30_DIR TOKYO_R30_LONG TOKYO_R30_SHORT TOKYO_LAND CMA_LAT CMA_LON CMA_CAT CMA_WIND CMA_PRES HKO_LAT HKO_LON HKO_CAT HKO_WIND HKO_PRES NEWDELHI_LAT NEWDELHI_LON NEWDELHI_GRADE NEWDELHI_WIND NEWDELHI_PRES NEWDELHI_CI NEWDELHI_DP NEWDELHI_POCI REUNION_LAT REUNION_LON REUNION_TYPE REUNION_WIND REUNION_PRES REUNION_TNUM REUNION_CI REUNION_RMW REUNION_R34_NE REUNION_R34_SE REUNION_R34_SW REUNION_R34_NW REUNION_R50_NE REUNION_R50_SE REUNION_R50_SW REUNION_R50_NW REUNION_R64_NE REUNION_R64_SE REUNION_R64_SW REUNION_R64_NW BOM_LAT BOM_LON BOM_TYPE BOM_WIND BOM_PRES BOM_TNUM BOM_CI BOM_RMW BOM_R34_NE BOM_R34_SE BOM_R34_SW BOM_R34_NW BOM_R50_NE BOM_R50_SE BOM_R50_SW BOM_R50_NW BOM_R64_NE BOM_R64_SE BOM_R64_SW BOM_R64_NW BOM_ROCI BOM_POCI BOM_EYE BOM_POS_METHOD BOM_PRES_METHOD NADI_LAT NADI_LON NADI_CAT NADI_WIND NADI_PRES WELLINGTON_LAT WELLINGTON_LON WELLINGTON_WIND WELLINGTON_PRES DS824_LAT DS824_LON DS824_STAGE DS824_WIND DS824_PRES TD9636_LAT TD9636_LON TD9636_STAGE TD9636_WIND TD9636_PRES TD9635_LAT TD9635_LON TD9635_WIND TD9635_PRES TD9635_ROCI NEUMANN_LAT NEUMANN_LON NEUMANN_CLASS NEUMANN_WIND NEUMANN_PRES MLC_LAT MLC_LON MLC_CLASS MLC_WIND MLC_PRES USA_GUST BOM_GUST BOM_GUST_PER REUNION_GUST REUNION_GUST_PER USA_SEAHGT USA_SEARAD_NE USA_SEARAD_SE USA_SEARAD_SW USA_SEARAD_NW STORM_SPEED STORM_DIR
1945032S19051 1945 9 SI MM NOT_NAMED 1945-02-01 06:00:00 NR -19.2000 50.8000 reunion main 177 167 _____O________ -1 -19.2000 50.8000 99 9.90000 3 242
1945032S19051 1945 9 SI MM NOT_NAMED 1945-02-01 09:00:00 NR -19.2590 50.6779 main 171 161 _____P________ -1 -19.2590 50.6779 99 3 243
1945032S19051 1945 9 SI MM NOT_NAMED 1945-02-01 12:00:00 NR -19.3196 50.5531 main 161 143 _____P________ -1 -19.3196 50.5531 99 3 243
1945032S19051 1945 9 SI MM NOT_NAMED 1945-02-01 15:00:00 NR -19.3831 50.4229 main 143 133 _____P________ -1 -19.3831 50.4229 99 3 243
1945032S19051 1945 9 SI MM NOT_NAMED 1945-02-01 18:00:00 NR -19.4512 50.2848 main 137 118 _____P________ -1 -19.4512 50.2848 99 3 242
1945032S19051 1945 9 SI MM NOT_NAMED 1945-02-01 21:00:00 NR -19.5255 50.1361 main 118 114 _____P________ -1 -19.5255 50.1361 99 3 242
1945032S19051 1945 9 SI MM NOT_NAMED 1945-02-02 00:00:00 NR -19.6073 49.9742 main 114 100 _____P________ -1 -19.6073 49.9742 99 4 242
1945032S19051 1945 9 SI MM NOT_NAMED 1945-02-02 03:00:00 NR -19.6983 49.7964 main 100 83 _____P________ -1 -19.6983 49.7964 99 4 241
1945032S19051 1945 9 SI MM NOT_NAMED 1945-02-02 06:00:00 NR -19.8000 49.6000 reunion main 83 62 _____O________ -1 -19.8000 49.6000 99 9.90000 4 241
1945032S19051 1945 9 SI MM NOT_NAMED 1945-02-02 09:00:00 NR -19.9138 49.3823 main 62 41 _____P________ -1 -19.9138 49.3823 99 5 241
1945032S19051 1945 9 SI MM NOT_NAMED 1945-02-02 12:00:00 NR -20.0416 49.1402 main 31 15 _____P________ -1 -20.0416 49.1402 99 6 241
1945032S19051 1945 9 SI MM NOT_NAMED 1945-02-02 15:00:00 NR -20.1851 48.8708 main 20 0 _____P________ -1 -20.1851 48.8708 99 6 240
1945032S19051 1945 9 SI MM NOT_NAMED 1945-02-02 18:00:00 NR -20.3461 48.5709 main 0 0 _____P________ -1 -20.3461 48.5709 99 7 240
1945032S19051 1945 9 SI MM NOT_NAMED 1945-02-02 21:00:00 NR -20.5264 48.2372 main 0 0 _____P________ -1 -20.5264 48.2372 99 8 240
1945032S19051 1945 9 SI MM NOT_NAMED 1945-02-03 00:00:00 NR -20.7277 47.8664 main 0 0 _____P________ -1 -20.7277 47.8664 99 8 240
1945032S19051 1945 9 SI MM NOT_NAMED 1945-02-03 03:00:00 NR -20.9517 47.4552 main 0 0 _____P________ -1 -20.9517 47.4552 99 9 240
1945032S19051 1945 9 SI MM NOT_NAMED 1945-02-03 06:00:00 NR -21.2000 47.0000 reunion main 0 0 _____O________ -1 -21.2000 47.0000 99 9.90000 11 240
1945032S19051 1945 9 SI MM NOT_NAMED 1945-02-03 09:00:00 NR -21.5118 46.4258 main 0 0 _____P________ -1 -21.5118 46.4258 99 13 240
1945032S19051 1945 9 SI MM NOT_NAMED 1945-02-03 12:00:00 NR -21.8534 45.7933 main 0 0 _____P________ -1 -21.8534 45.7933 99 14 240
1945032S19051 1945 9 SI MM NOT_NAMED 1945-02-03 15:00:00 NR -22.2114 45.1255 main 0 0 _____P________ -1 -22.2114 45.1255 99 14 240
1945032S19051 1945 9 SI MM NOT_NAMED 1945-02-03 18:00:00 NR -22.5726 44.4459 main 0 0 _____P________ -1 -22.5726 44.4459 99 14 240
1945032S19051 1945 9 SI MM NOT_NAMED 1945-02-03 21:00:00 NR -22.9242 43.7788 main 0 0 _____P________ -1 -22.9242 43.7788 99 14 240
1945032S19051 1945 9 SI MM NOT_NAMED 1945-02-04 00:00:00 NR -23.2539 43.1487 main 51 51 _____P________ -1 -23.2539 43.1487 99 13 240
1945032S19051 1945 9 SI MM NOT_NAMED 1945-02-04 03:00:00 NR -23.5497 42.5807 main 104 102 _____P________ -1 -23.5497 42.5807 99 11 240
1945032S19051 1945 9 SI MM NOT_NAMED 1945-02-04 06:00:00 NR -23.8000 42.1000 reunion main 152 152 _____O________ -1 -23.8000 42.1000 99 9.90000 9 240
1945032S19051 1945 9 SI MM NOT_NAMED 1945-02-04 09:00:00 NR -23.9965 41.7256 main 196 196 _____P________ -1 -23.9965 41.7256 99 7 240
1945032S19051 1945 9 SI MM NOT_NAMED 1945-02-04 12:00:00 NR -24.1439 41.4505 main 218 218 _____P________ -1 -24.1439 41.4505 99 5 239
1945032S19051 1945 9 SI MM NOT_NAMED 1945-02-04 15:00:00 NR -24.2496 41.2609 main 240 240 _____P________ -1 -24.2496 41.2609 99 3 238
1945032S19051 1945 9 SI MM NOT_NAMED 1945-02-04 18:00:00 NR -24.3209 41.1427 main 262 262 _____P________ -1 -24.3209 41.1427 99 2 234
1945032S19051 1945 9 SI MM NOT_NAMED 1945-02-04 21:00:00 NR -24.3646 41.0818 main 265 265 _____P________ -1 -24.3646 41.0818 99 1 226
1945032S19051 1945 9 SI MM NOT_NAMED 1945-02-05 00:00:00 NR -24.3878 41.0639 main 265 265 _____P________ -1 -24.3878 41.0639 99 0 214
1945032S19051 1945 9 SI MM NOT_NAMED 1945-02-05 03:00:00 NR -24.3973 41.0748 main 265 265 _____P________ -1 -24.3973 41.0748 99 0 108
1945032S19051 1945 9 SI MM NOT_NAMED 1945-02-05 06:00:00 NR -24.4000 41.1000 reunion main 265 _____O________ -1 -24.4000 41.1000 99 9.90000 0 0

About IBTrACS Database

This database is a web-friendly format of International Best Track Archive for Climate Stewardship (IBTrACS), a global best track data archive curated by NOAA dating back to 1842.

Updated: 2021-10-21